Time;durP1;ratioP1;P1;durP2;ratioP2;P2;SDS_P1;SDS_P2;PMS_P1;PMS_P2;Temp;Humidity;BMP_temperature;BMP_pressure;BME280_temperature;BME280_humidity;BME280_pressure;Samples;Min_cycle;Max_cycle;Signal;HPM_P1;HPM_P2
2022/02/27 00:00:16;;;;;;;19.55;10.02;;;10.00;74.30;;;;;;5037164;28;20029;-80
2022/02/27 00:02:42;;;;;;;18.13;9.32;;;10.00;74.30;;;;;;5026140;28;20021;-79
2022/02/27 00:05:08;;;;;;;17.55;9.38;;;10.00;74.20;;;;;;5035826;28;20021;-81
2022/02/27 00:07:33;;;;;;;18.73;9.40;;;10.00;74.20;;;;;;5049867;28;20104;-80
2022/02/27 00:09:59;;;;;;;17.85;8.90;;;10.00;74.20;;;;;;5053973;28;20460;-80
2022/02/27 00:12:25;;;;;;;18.38;9.57;;;10.00;74.30;;;;;;5055023;28;20029;-80
2022/02/27 00:14:50;;;;;;;20.05;9.45;;;10.00;74.30;;;;;;5054068;28;20029;-80
2022/02/27 00:17:16;;;;;;;16.85;9.00;;;10.00;74.30;;;;;;5036669;28;20029;-79
2022/02/27 00:19:41;;;;;;;17.30;8.70;;;10.00;74.30;;;;;;5020281;28;20021;-80
2022/02/27 00:22:07;;;;;;;15.73;9.10;;;10.00;74.20;;;;;;5036693;28;20175;-80
2022/02/27 00:24:33;;;;;;;17.83;9.25;;;10.00;74.20;;;;;;5037709;28;20025;-79
2022/02/27 00:26:59;;;;;;;19.20;9.73;;;10.00;74.20;;;;;;5055538;28;20053;-80
2022/02/27 00:29:24;;;;;;;21.48;9.48;;;10.00;74.20;;;;;;5035309;28;20087;-80
2022/02/27 00:31:50;;;;;;;24.02;9.23;;;10.00;74.30;;;;;;5033959;28;20025;-80
2022/02/27 00:34:15;;;;;;;26.40;9.23;;;10.00;74.20;;;;;;5055512;28;20017;-79
2022/02/27 00:36:41;;;;;;;16.48;8.88;;;10.00;74.30;;;;;;5037226;28;20024;-80
2022/02/27 00:39:07;;;;;;;18.15;9.50;;;10.00;74.20;;;;;;5028879;28;20508;-80
2022/02/27 00:41:32;;;;;;;23.20;9.27;;;10.00;74.20;;;;;;5036682;28;20078;-80
2022/02/27 00:43:59;;;;;;;17.85;9.18;;;10.00;74.20;;;;;;5024196;28;20021;-79
2022/02/27 00:46:25;;;;;;;17.08;8.82;;;9.90;74.10;;;;;;5023358;28;20030;-79
2022/02/27 00:48:50;;;;;;;18.73;9.35;;;10.00;74.20;;;;;;5033820;28;20025;-80
2022/02/27 00:51:16;;;;;;;14.57;8.88;;;9.90;74.20;;;;;;5017541;28;20028;-80
2022/02/27 00:53:41;;;;;;;18.90;9.20;;;9.90;74.10;;;;;;5020057;28;20047;-80
2022/02/27 00:56:07;;;;;;;15.60;9.50;;;9.90;74.20;;;;;;5021662;28;20025;-80
2022/02/27 00:58:32;;;;;;;15.00;9.05;;;10.00;74.20;;;;;;5017276;28;20030;-80
2022/02/27 01:00:58;;;;;;;19.45;9.60;;;9.90;74.20;;;;;;5029070;28;20033;-80
2022/02/27 01:03:23;;;;;;;16.17;8.73;;;9.90;74.20;;;;;;5036196;28;20373;-80
2022/02/27 01:05:49;;;;;;;17.75;9.32;;;9.90;74.10;;;;;;5036918;28;20029;-80
2022/02/27 01:08:14;;;;;;;15.88;9.18;;;10.00;74.20;;;;;;5020385;28;20026;-80
2022/02/27 01:10:40;;;;;;;19.02;9.93;;;9.90;74.10;;;;;;5036311;28;20108;-80
2022/02/27 01:13:05;;;;;;;16.73;9.73;;;10.00;74.20;;;;;;5036244;28;20033;-80
2022/02/27 01:15:31;;;;;;;16.20;9.18;;;9.90;74.10;;;;;;5021747;28;20027;-80
2022/02/27 01:17:56;;;;;;;16.85;9.02;;;10.00;74.10;;;;;;5036026;28;20032;-79
2022/02/27 01:20:22;;;;;;;18.20;9.48;;;9.90;74.10;;;;;;5033996;28;20032;-79
2022/02/27 01:22:47;;;;;;;18.67;9.48;;;9.90;74.10;;;;;;5016893;28;20030;-80
2022/02/27 01:25:13;;;;;;;23.05;9.68;;;9.90;74.10;;;;;;5032543;28;20036;-80
2022/02/27 01:27:39;;;;;;;18.90;8.75;;;9.90;74.10;;;;;;5020553;28;20024;-80
2022/02/27 01:30:07;;;;;;;15.52;9.32;;;9.90;74.00;;;;;;5044944;28;20513;-79
2022/02/27 01:32:32;;;;;;;15.25;9.50;;;9.90;74.00;;;;;;5025780;28;20026;-80
2022/02/27 01:34:58;;;;;;;15.63;8.85;;;9.90;74.10;;;;;;5019523;28;20033;-80
2022/02/27 01:37:23;;;;;;;17.10;8.98;;;9.90;74.10;;;;;;5036027;28;20036;-79
2022/02/27 01:39:49;;;;;;;14.70;9.00;;;9.90;74.00;;;;;;5035546;28;20021;-80
2022/02/27 01:42:17;;;;;;;16.25;9.00;;;9.90;74.00;;;;;;5020408;28;20461;-79
2022/02/27 01:44:44;;;;;;;15.27;9.25;;;9.90;74.00;;;;;;5019034;28;20484;-79
2022/02/27 01:47:12;;;;;;;15.43;9.45;;;9.90;74.50;;;;;;5024836;28;20017;-81
2022/02/27 01:49:44;;;;;;;13.65;8.50;;;9.90;74.00;;;;;;5033379;28;20171;-79
2022/02/27 01:52:10;;;;;;;15.43;9.20;;;9.90;74.00;;;;;;5016483;28;20021;-81
2022/02/27 01:54:36;;;;;;;15.20;8.65;;;9.90;73.90;;;;;;5016638;28;20107;-80
2022/02/27 01:57:03;;;;;;;15.27;9.35;;;9.90;73.90;;;;;;5035774;28;20158;-80
2022/02/27 01:59:28;;;;;;;18.27;9.30;;;9.90;73.90;;;;;;5035950;28;20040;-80
2022/02/27 02:01:54;;;;;;;20.30;9.10;;;9.90;73.90;;;;;;5035802;28;20025;-80
2022/02/27 02:04:20;;;;;;;17.85;9.20;;;9.90;73.90;;;;;;5019491;28;20116;-79
2022/02/27 02:06:45;;;;;;;18.95;9.63;;;9.90;73.90;;;;;;5034279;28;20024;-79
2022/02/27 02:09:11;;;;;;;15.63;8.45;;;9.90;73.90;;;;;;5027310;28;20076;-80
2022/02/27 02:11:38;;;;;;;14.73;8.95;;;9.90;73.90;;;;;;5030946;28;20440;-79
2022/02/27 02:14:05;;;;;;;29.00;9.98;;;9.90;73.90;;;;;;5033955;28;20086;-81
2022/02/27 02:16:41;;;;;;;22.00;9.48;;;9.90;73.80;;;;;;5017986;28;20033;-79
2022/02/27 02:19:06;;;;;;;20.48;8.70;;;9.90;73.80;;;;;;5023965;28;20075;-79
2022/02/27 02:21:44;;;;;;;14.23;8.90;;;9.90;73.80;;;;;;5015801;28;20029;-79
2022/02/27 02:24:10;;;;;;;13.57;8.80;;;9.90;73.80;;;;;;5033369;28;20076;-79
2022/02/27 02:26:37;;;;;;;15.48;9.25;;;9.90;73.80;;;;;;5015254;28;20036;-79
2022/02/27 02:29:07;;;;;;;18.08;9.07;;;9.90;73.70;;;;;;5022381;28;20107;-79
2022/02/27 02:31:34;;;;;;;23.55;10.50;;;9.90;73.80;;;;;;5019369;28;20079;-79
2022/02/27 02:34:11;;;;;;;19.80;8.50;;;9.90;73.80;;;;;;5034204;28;20025;-80
2022/02/27 02:36:37;;;;;;;17.67;8.80;;;9.90;73.80;;;;;;5035278;28;20491;-79
2022/02/27 02:39:06;;;;;;;35.80;10.20;;;9.90;73.80;;;;;;5034677;28;20074;-79
2022/02/27 02:41:32;;;;;;;25.20;9.25;;;9.90;73.90;;;;;;5034747;28;20055;-79
2022/02/27 02:43:58;;;;;;;25.35;9.32;;;9.90;73.80;;;;;;5016695;28;20036;-79
2022/02/27 02:46:24;;;;;;;21.17;9.75;;;9.90;73.80;;;;;;5028384;28;20488;-79
2022/02/27 02:48:50;;;;;;;37.17;10.55;;;9.90;73.80;;;;;;5015574;28;20013;-79
2022/02/27 02:51:15;;;;;;;43.53;10.65;;;9.90;73.70;;;;;;5033981;28;20071;-79
2022/02/27 02:53:41;;;;;;;56.58;10.85;;;9.90;74.00;;;;;;5034945;28;20036;-78
2022/02/27 02:56:08;;;;;;;38.33;10.93;;;9.90;73.70;;;;;;5024262;28;20022;-79
2022/02/27 02:58:39;;;;;;;34.30;9.82;;;9.90;73.70;;;;;;5029251;28;20100;-79
2022/02/27 03:01:05;;;;;;;32.92;10.63;;;9.90;73.70;;;;;;5048297;28;20029;-80
2022/02/27 03:03:31;;;;;;;22.25;9.38;;;9.90;73.60;;;;;;5015259;28;20026;-79
2022/02/27 03:05:56;;;;;;;26.67;10.35;;;9.90;73.60;;;;;;5016581;28;20037;-79
2022/02/27 03:08:22;;;;;;;29.83;10.65;;;9.90;73.50;;;;;;5033300;28;20551;-79
2022/02/27 03:10:47;;;;;;;22.10;10.32;;;9.90;73.60;;;;;;5034201;28;20032;-79
2022/02/27 03:13:13;;;;;;;20.92;10.65;;;9.90;73.50;;;;;;5034628;28;20051;-80
2022/02/27 03:15:38;;;;;;;19.35;9.98;;;9.90;73.60;;;;;;5034955;28;20544;-79
2022/02/27 03:18:04;;;;;;;18.95;10.50;;;9.90;73.50;;;;;;5034999;28;20061;-80
2022/02/27 03:20:31;;;;;;;21.33;10.10;;;9.90;73.50;;;;;;5019108;28;20025;-80
2022/02/27 03:22:56;;;;;;;18.00;9.70;;;9.90;73.60;;;;;;5015083;28;20040;-79
2022/02/27 03:25:22;;;;;;;18.60;10.40;;;9.90;73.50;;;;;;5018817;28;20017;-80
2022/02/27 03:27:51;;;;;;;19.40;9.75;;;9.80;73.50;;;;;;5034349;28;20021;-79
2022/02/27 03:30:16;;;;;;;18.38;9.82;;;9.80;73.40;;;;;;5033158;28;20025;-79
2022/02/27 03:32:46;;;;;;;19.17;10.75;;;9.80;73.50;;;;;;5029956;28;20174;-79
2022/02/27 03:35:21;;;;;;;17.75;9.82;;;9.80;73.40;;;;;;5019823;28;20025;-79
2022/02/27 03:37:50;;;;;;;17.00;10.65;;;9.80;73.40;;;;;;5032862;28;20033;-79
2022/02/27 03:40:17;;;;;;;17.77;9.77;;;9.90;73.40;;;;;;5014310;28;20026;-79
2022/02/27 03:42:44;;;;;;;16.92;9.82;;;9.80;73.30;;;;;;5023956;28;20175;-79
2022/02/27 03:45:10;;;;;;;19.38;10.05;;;9.90;73.40;;;;;;5024187;28;20036;-79
2022/02/27 03:47:35;;;;;;;19.27;10.07;;;9.80;73.20;;;;;;5034743;28;20025;-81
2022/02/27 03:50:01;;;;;;;16.15;10.07;;;9.80;73.20;;;;;;5034510;28;20630;-79
2022/02/27 03:52:26;;;;;;;15.20;10.05;;;9.80;73.20;;;;;;5027495;28;20503;-79
2022/02/27 03:54:52;;;;;;;16.80;10.35;;;9.80;73.20;;;;;;5020749;28;20032;-79
2022/02/27 03:57:18;;;;;;;17.65;10.27;;;9.90;73.20;;;;;;5037261;28;20033;-81
2022/02/27 03:59:43;;;;;;;16.27;9.60;;;9.80;73.20;;;;;;5036512;28;20488;-80
2022/02/27 04:02:09;;;;;;;16.27;10.10;;;9.80;73.20;;;;;;5036837;28;20025;-79
2022/02/27 04:04:34;;;;;;;17.48;9.52;;;9.80;73.20;;;;;;5035772;28;20063;-80
2022/02/27 04:07:00;;;;;;;16.52;9.02;;;9.80;73.20;;;;;;5025846;28;20021;-79
2022/02/27 04:09:25;;;;;;;17.88;10.15;;;9.80;73.20;;;;;;5017332;28;20079;-79
2022/02/27 04:11:51;;;;;;;15.25;9.27;;;9.80;73.30;;;;;;5036506;28;20025;-78
2022/02/27 04:14:17;;;;;;;16.33;9.70;;;9.80;73.20;;;;;;5021775;28;20104;-79
2022/02/27 04:16:42;;;;;;;16.67;10.10;;;9.80;73.30;;;;;;5034820;28;20022;-79
2022/02/27 04:19:08;;;;;;;17.10;9.48;;;9.80;73.30;;;;;;5017233;28;20029;-79
2022/02/27 04:21:34;;;;;;;15.82;9.75;;;9.80;73.30;;;;;;5028542;28;20025;-80
2022/02/27 04:24:00;;;;;;;15.57;9.35;;;9.80;73.40;;;;;;5017271;28;20028;-79
2022/02/27 04:26:26;;;;;;;14.52;9.13;;;9.80;73.40;;;;;;5092947;22;20126;-73
2022/02/27 04:28:52;;;;;;;17.58;10.27;;;9.80;73.30;;;;;;5035760;28;20491;-72
2022/02/27 04:31:17;;;;;;;16.48;9.60;;;9.80;73.50;;;;;;5035408;28;20632;-73
2022/02/27 04:33:43;;;;;;;20.27;9.80;;;9.80;73.60;;;;;;5052871;28;20036;-73
2022/02/27 04:36:08;;;;;;;24.13;9.82;;;9.80;73.40;;;;;;5053705;28;20051;-73
2022/02/27 04:38:34;;;;;;;37.83;10.40;;;9.80;73.50;;;;;;5030892;28;20025;-73
2022/02/27 04:40:59;;;;;;;26.25;10.95;;;9.80;73.50;;;;;;5015808;28;20071;-73
2022/02/27 04:43:25;;;;;;;31.27;9.57;;;9.80;73.50;;;;;;5040819;28;20025;-73
2022/02/27 04:45:50;;;;;;;21.65;9.07;;;9.80;73.40;;;;;;5053459;28;20484;-73
2022/02/27 04:48:16;;;;;;;16.73;9.30;;;9.80;73.50;;;;;;5035782;28;20022;-73
2022/02/27 04:50:42;;;;;;;22.23;9.15;;;9.80;73.40;;;;;;5053320;28;20024;-73
2022/02/27 04:53:07;;;;;;;24.92;10.10;;;9.80;73.40;;;;;;5053597;28;20468;-73
2022/02/27 04:55:33;;;;;;;24.35;9.70;;;9.80;73.30;;;;;;5046855;28;20029;-73
2022/02/27 04:57:58;;;;;;;20.98;9.68;;;9.80;73.40;;;;;;5015795;28;20029;-73
2022/02/27 05:00:24;;;;;;;18.77;9.35;;;9.80;73.30;;;;;;5032986;28;20548;-73
2022/02/27 05:02:49;;;;;;;28.63;9.48;;;9.80;73.90;;;;;;5033019;28;20136;-73
2022/02/27 05:05:15;;;;;;;21.67;8.75;;;9.80;73.40;;;;;;5018955;28;20048;-73
2022/02/27 05:07:40;;;;;;;21.92;8.90;;;9.80;73.40;;;;;;5016623;28;20033;-73
2022/02/27 05:10:08;;;;;;;27.48;9.50;;;9.80;73.30;;;;;;5016250;28;20034;-73
2022/02/27 05:12:36;;;;;;;19.08;9.38;;;9.80;73.40;;;;;;5034252;28;20424;-73
2022/02/27 05:15:01;;;;;;;20.40;8.73;;;9.80;73.30;;;;;;5034390;28;20026;-73
2022/02/27 05:17:27;;;;;;;21.88;8.75;;;9.80;73.30;;;;;;5052671;28;20029;-73
2022/02/27 05:19:52;;;;;;;19.45;8.98;;;9.80;73.30;;;;;;5032711;28;20107;-74
2022/02/27 05:22:18;;;;;;;19.40;8.63;;;9.80;73.30;;;;;;5033490;28;20023;-73
2022/02/27 05:24:43;;;;;;;19.15;8.40;;;9.80;73.80;;;;;;5049287;28;20026;-72
2022/02/27 05:27:09;;;;;;;17.38;8.10;;;9.80;73.30;;;;;;5049478;28;20033;-73
2022/02/27 05:29:34;;;;;;;16.92;8.18;;;9.80;73.30;;;;;;5052082;28;20033;-72
2022/02/27 05:32:00;;;;;;;18.13;8.48;;;9.80;73.30;;;;;;5032956;28;20058;-73
2022/02/27 05:34:25;;;;;;;20.42;8.30;;;9.80;73.30;;;;;;5032328;28;20032;-73
2022/02/27 05:36:51;;;;;;;19.98;8.48;;;9.80;73.20;;;;;;5021777;28;20510;-72
2022/02/27 05:39:16;;;;;;;17.48;7.70;;;9.70;73.20;;;;;;5033919;28;20075;-72
2022/02/27 05:41:42;;;;;;;16.40;8.00;;;9.80;73.20;;;;;;5015622;28;20089;-73
2022/02/27 05:44:08;;;;;;;16.98;7.70;;;9.70;73.10;;;;;;5014571;28;20021;-73
2022/02/27 05:46:34;;;;;;;19.08;8.70;;;9.80;73.20;;;;;;5032696;28;20025;-73
2022/02/27 05:48:59;;;;;;;15.65;7.10;;;9.70;73.10;;;;;;5029573;28;20024;-73
2022/02/27 05:51:25;;;;;;;14.73;7.40;;;9.70;73.10;;;;;;5041416;28;20061;-72
2022/02/27 05:53:50;;;;;;;16.42;7.95;;;9.70;73.10;;;;;;5034593;28;20025;-73
2022/02/27 05:56:16;;;;;;;15.45;7.85;;;9.70;73.00;;;;;;5038463;28;20025;-72
2022/02/27 05:58:41;;;;;;;15.98;7.30;;;9.70;73.00;;;;;;5019221;28;20036;-73
2022/02/27 06:01:07;;;;;;;15.18;7.53;;;9.70;73.00;;;;;;5033666;28;20035;-73
2022/02/27 06:03:32;;;;;;;15.00;6.90;;;9.70;73.00;;;;;;5034041;28;20017;-73
2022/02/27 06:05:58;;;;;;;14.27;7.53;;;9.80;73.10;;;;;;5017674;28;20116;-73
2022/02/27 06:08:23;;;;;;;18.23;7.65;;;9.70;73.00;;;;;;5026540;28;20095;-73
2022/02/27 06:10:49;;;;;;;16.30;8.00;;;9.70;73.00;;;;;;5031909;28;20025;-74
2022/02/27 06:13:14;;;;;;;15.45;7.88;;;9.70;72.90;;;;;;5033291;28;20151;-73
2022/02/27 06:15:41;;;;;;;16.55;7.28;;;9.70;73.00;;;;;;5032352;28;20043;-72
2022/02/27 06:18:06;;;;;;;18.20;7.75;;;9.70;73.00;;;;;;5034074;28;20145;-73
2022/02/27 06:20:32;;;;;;;16.45;7.93;;;9.70;73.00;;;;;;5033419;28;20025;-73
2022/02/27 06:22:57;;;;;;;16.40;7.80;;;9.70;73.00;;;;;;5031675;28;20032;-73
2022/02/27 06:25:23;;;;;;;13.95;7.47;;;9.70;72.90;;;;;;5049925;28;20029;-72
2022/02/27 06:27:49;;;;;;;13.35;7.20;;;9.70;72.90;;;;;;5034675;28;20032;-73
2022/02/27 06:30:18;;;;;;;14.40;7.85;;;9.70;72.80;;;;;;5037009;28;20025;-73
2022/02/27 06:32:47;;;;;;;14.45;7.50;;;9.70;72.70;;;;;;5043843;28;20086;-73
2022/02/27 06:35:12;;;;;;;15.93;7.38;;;9.80;72.70;;;;;;5031885;28;20022;-73
2022/02/27 06:37:38;;;;;;;13.20;7.00;;;9.70;72.70;;;;;;5021772;28;20082;-73
2022/02/27 06:40:05;;;;;;;14.20;6.80;;;9.70;72.70;;;;;;5049191;28;20029;-73
2022/02/27 06:42:31;;;;;;;14.43;7.35;;;9.70;72.70;;;;;;5031914;28;20125;-73
2022/02/27 06:44:56;;;;;;;12.02;6.63;;;9.70;72.60;;;;;;5033808;28;20471;-73
2022/02/27 06:47:22;;;;;;;14.75;7.13;;;9.80;73.20;;;;;;5033497;28;20083;-73
2022/02/27 06:49:47;;;;;;;13.55;7.63;;;9.80;72.60;;;;;;5033128;28;20029;-72
2022/02/27 06:52:13;;;;;;;12.00;6.78;;;9.80;72.60;;;;;;5031999;28;20025;-73
2022/02/27 06:54:39;;;;;;;12.60;7.07;;;9.80;72.60;;;;;;5032689;28;20495;-73
2022/02/27 06:57:04;;;;;;;13.57;6.72;;;9.80;72.50;;;;;;5023253;28;20033;-73
2022/02/27 06:59:30;;;;;;;12.20;6.78;;;9.80;72.50;;;;;;5038194;28;20043;-72
2022/02/27 07:01:55;;;;;;;14.30;7.32;;;9.80;72.50;;;;;;5023821;28;20037;-72
2022/02/27 07:04:21;;;;;;;13.27;7.00;;;9.80;72.50;;;;;;5038195;28;20054;-72
2022/02/27 07:06:46;;;;;;;10.85;6.85;;;9.90;72.50;;;;;;5041255;28;20039;-73
2022/02/27 07:09:12;;;;;;;14.77;7.63;;;9.90;72.50;;;;;;5038527;28;20404;-73
2022/02/27 07:11:38;;;;;;;14.25;8.10;;;9.90;72.40;;;;;;5008602;28;20037;-72
2022/02/27 07:14:03;;;;;;;14.90;9.20;;;9.90;72.40;;;;;;5042869;28;20610;-73
2022/02/27 07:16:29;;;;;;;18.02;12.20;;;9.90;72.30;;;;;;5033242;28;20086;-72
2022/02/27 07:18:55;;;;;;;18.25;12.73;;;9.90;72.30;;;;;;5044801;28;20025;-73
2022/02/27 07:21:21;;;;;;;19.65;12.98;;;9.90;72.40;;;;;;5009488;28;20022;-72
2022/02/27 07:23:47;;;;;;;18.25;13.25;;;10.00;72.40;;;;;;5012086;28;20097;-74
2022/02/27 07:26:13;;;;;;;19.50;12.82;;;10.00;72.40;;;;;;5018565;28;20037;-72
2022/02/27 07:28:38;;;;;;;17.63;12.02;;;10.00;72.50;;;;;;5029770;28;20032;-73
2022/02/27 07:31:04;;;;;;;16.92;11.18;;;10.10;72.60;;;;;;5044049;28;20037;-72
2022/02/27 07:33:30;;;;;;;15.85;10.85;;;10.10;72.60;;;;;;5030851;28;20486;-73
2022/02/27 07:35:55;;;;;;;15.82;11.02;;;10.10;72.50;;;;;;5048860;28;20044;-72
2022/02/27 07:38:21;;;;;;;15.50;10.95;;;10.20;72.60;;;;;;5049000;28;20041;-72
2022/02/27 07:40:49;;;;;;;13.75;10.10;;;10.20;72.70;;;;;;5030736;28;20032;-73
2022/02/27 07:43:15;;;;;;;16.00;10.70;;;10.20;72.70;;;;;;5029589;28;20021;-73
2022/02/27 07:45:41;;;;;;;14.25;9.55;;;10.30;72.70;;;;;;5048751;28;20032;-71
2022/02/27 07:48:07;;;;;;;15.82;10.30;;;10.30;72.70;;;;;;5045248;28;20028;-73
2022/02/27 07:50:33;;;;;;;19.83;10.40;;;10.30;72.70;;;;;;5029663;28;20028;-72
2022/02/27 07:52:58;;;;;;;15.93;9.20;;;10.40;72.90;;;;;;5049207;28;20029;-72
2022/02/27 07:55:24;;;;;;;13.27;8.77;;;10.40;73.00;;;;;;5019563;28;20683;-72
2022/02/27 07:57:49;;;;;;;13.70;9.07;;;10.40;73.00;;;;;;5035004;28;20036;-72
2022/02/27 08:00:15;;;;;;;14.75;9.10;;;10.40;73.00;;;;;;5030047;28;20385;-73
2022/02/27 08:02:41;;;;;;;13.95;8.82;;;10.50;72.90;;;;;;5030410;28;20541;-73
2022/02/27 08:05:07;;;;;;;15.52;9.15;;;10.50;72.90;;;;;;5048279;28;20024;-73
2022/02/27 08:07:32;;;;;;;13.10;8.68;;;10.50;72.80;;;;;;5048789;28;20067;-72
2022/02/27 08:09:58;;;;;;;12.88;8.32;;;10.60;72.70;;;;;;5031070;28;20575;-74
2022/02/27 08:12:23;;;;;;;12.00;8.38;;;10.60;72.70;;;;;;5049428;28;20567;-74
2022/02/27 08:14:49;;;;;;;12.60;8.85;;;10.60;72.60;;;;;;5049364;28;20032;-73
2022/02/27 08:17:17;;;;;;;11.82;8.70;;;10.70;72.60;;;;;;5049925;28;20025;-73
2022/02/27 08:19:44;;;;;;;12.55;8.57;;;10.70;72.60;;;;;;5046188;28;20079;-73
2022/02/27 08:22:09;;;;;;;12.60;8.63;;;10.70;72.50;;;;;;5030800;28;20104;-73
2022/02/27 08:24:35;;;;;;;12.55;8.20;;;10.70;72.50;;;;;;5030733;28;20139;-73
2022/02/27 08:27:00;;;;;;;11.40;8.05;;;10.80;72.60;;;;;;5020454;28;20025;-74
2022/02/27 08:29:26;;;;;;;12.32;8.07;;;10.90;72.60;;;;;;5048064;28;20075;-73
2022/02/27 08:31:51;;;;;;;11.93;8.32;;;10.80;72.60;;;;;;5030157;28;20036;-73
2022/02/27 08:34:17;;;;;;;11.38;7.78;;;10.90;72.90;;;;;;5048257;28;20408;-74
2022/02/27 08:36:42;;;;;;;12.05;7.80;;;10.90;72.60;;;;;;5046992;28;20063;-73
2022/02/27 08:39:09;;;;;;;10.88;7.63;;;10.90;72.60;;;;;;5022480;28;20039;-74
2022/02/27 08:41:36;;;;;;;10.50;7.53;;;10.90;72.60;;;;;;5051758;28;20120;-74
2022/02/27 08:44:02;;;;;;;12.15;7.78;;;10.90;72.70;;;;;;5035057;28;20021;-74
2022/02/27 08:46:27;;;;;;;11.50;7.80;;;11.10;72.90;;;;;;5036059;28;20032;-74
2022/02/27 08:48:53;;;;;;;11.32;7.35;;;11.00;72.60;;;;;;5045557;28;20079;-74
2022/02/27 08:51:18;;;;;;;10.45;7.00;;;11.00;72.50;;;;;;5048893;28;20376;-73
2022/02/27 08:53:44;;;;;;;11.60;7.20;;;11.00;72.40;;;;;;5031324;28;20451;-73
2022/02/27 08:56:09;;;;;;;11.50;7.18;;;11.00;72.50;;;;;;5047674;28;20531;-74
2022/02/27 08:58:35;;;;;;;11.07;7.07;;;11.00;72.20;;;;;;5063031;28;20036;-73
2022/02/27 09:01:00;;;;;;;10.85;6.78;;;11.00;72.00;;;;;;5049510;28;20063;-73
2022/02/27 09:03:27;;;;;;;9.95;6.38;;;11.10;71.90;;;;;;5031293;28;20035;-74
2022/02/27 09:05:53;;;;;;;12.55;6.85;;;11.00;71.80;;;;;;5029751;28;20025;-74
2022/02/27 09:08:19;;;;;;;12.20;7.00;;;11.10;71.60;;;;;;5047910;28;20029;-74
2022/02/27 09:10:46;;;;;;;11.30;6.60;;;11.10;71.70;;;;;;5047314;28;20033;-74
2022/02/27 09:13:12;;;;;;;12.30;6.30;;;11.10;71.70;;;;;;5048055;28;20032;-73
2022/02/27 09:15:37;;;;;;;10.20;6.15;;;11.10;71.70;;;;;;5015941;28;20025;-73
2022/02/27 09:18:03;;;;;;;11.95;6.97;;;11.10;71.70;;;;;;5027722;28;20036;-73
2022/02/27 09:20:29;;;;;;;11.13;6.20;;;11.10;71.70;;;;;;5027221;28;20043;-72
2022/02/27 09:22:54;;;;;;;10.07;6.13;;;11.10;71.70;;;;;;5009759;28;20021;-74
2022/02/27 09:25:20;;;;;;;9.88;5.93;;;11.20;71.80;;;;;;5042561;28;20446;-73
2022/02/27 09:27:46;;;;;;;9.38;5.88;;;11.10;71.80;;;;;;5027355;28;20025;-73
2022/02/27 09:30:12;;;;;;;10.43;5.82;;;11.10;71.80;;;;;;5009349;28;20087;-74
2022/02/27 09:32:39;;;;;;;9.45;6.50;;;11.10;71.70;;;;;;5027791;28;20086;-73
2022/02/27 09:35:06;;;;;;;9.32;5.93;;;11.20;71.80;;;;;;5037322;28;20033;-73
2022/02/27 09:37:32;;;;;;;10.57;5.88;;;11.20;71.80;;;;;;5047102;28;20595;-73
2022/02/27 09:39:59;;;;;;;11.13;6.65;;;11.20;71.80;;;;;;5027360;28;20021;-73
2022/02/27 09:42:29;;;;;;;9.95;6.15;;;11.20;71.80;;;;;;5051235;28;20008;-73
2022/02/27 09:44:55;;;;;;;9.90;5.88;;;11.20;71.80;;;;;;5030341;28;20391;-72
2022/02/27 09:47:21;;;;;;;10.40;6.57;;;11.30;71.70;;;;;;5045842;28;20029;-72
2022/02/27 09:49:47;;;;;;;10.77;6.38;;;11.30;71.70;;;;;;5045693;28;20021;-75
2022/02/27 09:52:17;;;;;;;10.00;6.15;;;11.30;71.70;;;;;;5030012;28;20021;-73
2022/02/27 09:54:43;;;;;;;10.18;6.10;;;11.30;71.70;;;;;;5046240;28;20033;-72
2022/02/27 09:57:20;;;;;;;9.10;5.88;;;11.30;71.70;;;;;;5024449;28;20396;-72
2022/02/27 09:59:46;;;;;;;9.60;5.60;;;11.40;71.80;;;;;;5039638;28;20033;-71
2022/02/27 10:02:12;;;;;;;8.88;5.72;;;11.30;71.70;;;;;;5044301;28;20017;-73
2022/02/27 10:04:40;;;;;;;9.07;5.45;;;11.40;71.80;;;;;;5027359;28;20116;-72
2022/02/27 10:07:17;;;;;;;11.80;6.13;;;11.40;71.70;;;;;;5045141;28;20492;-71
2022/02/27 10:09:45;;;;;;;9.00;5.80;;;11.40;71.60;;;;;;5045609;28;20021;-73
2022/02/27 10:12:18;;;;;;;9.13;5.80;;;11.40;71.50;;;;;;5045583;28;20094;-73
2022/02/27 10:15:00;;;;;;;10.48;5.95;;;11.50;71.40;;;;;;5028101;28;20133;-72
2022/02/27 10:17:37;;;;;;;10.55;5.93;;;11.50;71.20;;;;;;5032797;28;20028;-73
2022/02/27 10:20:09;;;;;;;8.73;5.50;;;11.50;71.20;;;;;;5045362;28;20035;-72
2022/02/27 10:22:37;;;;;;;9.57;5.40;;;11.60;71.20;;;;;;5027873;28;20549;-73
2022/02/27 10:25:07;;;;;;;8.38;5.35;;;11.60;71.10;;;;;;5026786;28;20029;-73
2022/02/27 10:28:03;;;;;;;8.80;5.45;;;11.60;71.10;;;;;;5028413;28;20056;-74
2022/02/27 10:30:31;;;;;;;8.95;5.05;;;11.60;71.10;;;;;;5016372;28;20041;-71
2022/02/27 10:33:04;;;;;;;10.73;5.72;;;11.60;71.10;;;;;;5044054;28;20041;-72
2022/02/27 10:35:39;;;;;;;9.98;5.50;;;11.60;71.00;;;;;;5028759;28;20025;-73
2022/02/27 10:38:08;;;;;;;12.00;5.47;;;11.60;70.90;;;;;;5042003;28;20035;-73
2022/02/27 10:40:36;;;;;;;12.85;5.95;;;11.70;70.80;;;;;;5045261;28;20033;-72
2022/02/27 10:43:06;;;;;;;10.73;5.10;;;11.70;70.70;;;;;;5027852;28;20111;-72
2022/02/27 10:45:31;;;;;;;12.10;5.47;;;11.70;70.60;;;;;;5045085;28;20082;-72
2022/02/27 10:48:06;;;;;;;11.45;5.78;;;11.70;70.60;;;;;;5045036;28;20025;-72
2022/02/27 10:50:32;;;;;;;9.27;5.20;;;11.70;70.60;;;;;;5045787;28;20029;-74
2022/02/27 10:52:58;;;;;;;8.85;4.90;;;11.70;70.60;;;;;;5025616;28;20093;-74
2022/02/27 10:55:25;;;;;;;13.55;5.78;;;11.70;71.00;;;;;;5034862;28;20021;-74
2022/02/27 10:57:52;;;;;;;12.77;5.40;;;11.70;70.50;;;;;;5027624;28;20025;-75
2022/02/27 11:00:25;;;;;;;17.15;5.88;;;11.80;70.50;;;;;;5030633;28;20035;-74
2022/02/27 11:03:05;;;;;;;17.77;6.10;;;11.80;70.40;;;;;;5032881;28;20581;-73
2022/02/27 11:05:32;;;;;;;16.90;5.88;;;11.80;70.50;;;;;;5032875;28;20503;-73
2022/02/27 11:08:01;;;;;;;20.15;5.80;;;11.80;70.40;;;;;;5032301;28;20529;-73
2022/02/27 11:10:29;;;;;;;13.75;5.40;;;11.80;70.40;;;;;;5031823;28;20678;-72
2022/02/27 11:12:59;;;;;;;11.98;5.63;;;11.80;70.40;;;;;;5055006;28;20036;-73
2022/02/27 11:15:25;;;;;;;15.20;5.30;;;11.80;70.30;;;;;;5050152;28;20056;-73
2022/02/27 11:17:50;;;;;;;10.40;5.30;;;11.80;70.30;;;;;;5050377;28;20044;-73
2022/02/27 11:20:19;;;;;;;38.03;7.68;;;11.80;70.30;;;;;;5035850;28;20072;-74
2022/02/27 11:22:46;;;;;;;19.85;5.95;;;11.80;70.50;;;;;;5031597;28;20483;-74
2022/02/27 11:25:12;;;;;;;13.82;4.75;;;11.80;70.50;;;;;;5031658;28;20021;-74
2022/02/27 11:27:42;;;;;;;11.93;4.40;;;11.70;70.40;;;;;;5050019;28;20516;-74
2022/02/27 11:30:10;;;;;;;14.75;4.97;;;11.80;70.20;;;;;;5031662;28;20025;-73
2022/02/27 11:32:51;;;;;;;13.57;4.95;;;11.80;70.10;;;;;;5049500;28;20033;-74
2022/02/27 11:35:49;;;;;;;10.95;4.78;;;11.80;70.10;;;;;;5031411;28;20033;-73
2022/02/27 11:38:38;;;;;;;12.13;4.97;;;11.80;70.10;;;;;;5031820;28;20047;-73
2022/02/27 11:41:06;;;;;;;12.75;5.20;;;11.70;69.80;;;;;;5031549;28;20548;-73
2022/02/27 11:43:53;;;;;;;10.45;4.40;;;11.80;69.70;;;;;;5049341;28;20090;-74
2022/02/27 11:46:41;;;;;;;12.02;4.25;;;11.80;69.60;;;;;;5032037;28;20040;-74
2022/02/27 11:49:18;;;;;;;8.65;4.45;;;11.80;69.30;;;;;;5031264;28;20029;-73
2022/02/27 11:52:07;;;;;;;9.43;4.00;;;11.70;69.10;;;;;;5029436;28;20056;-72
2022/02/27 11:54:37;;;;;;;9.77;3.70;;;11.80;68.90;;;;;;5046433;28;20116;-72
2022/02/27 11:57:10;;;;;;;8.90;3.95;;;11.80;68.80;;;;;;5029951;28;20031;-73
2022/02/27 11:59:56;;;;;;;11.70;4.28;;;11.80;68.70;;;;;;5047701;28;20033;-73
2022/02/27 12:02:30;;;;;;;8.70;3.70;;;11.80;68.30;;;;;;5047514;28;20529;-73
2022/02/27 12:05:00;;;;;;;9.05;3.85;;;11.80;67.90;;;;;;5048462;28;20116;-73
2022/02/27 12:07:28;;;;;;;7.72;3.70;;;11.80;67.30;;;;;;5030706;28;20510;-74
2022/02/27 12:09:55;;;;;;;7.22;3.55;;;11.70;67.00;;;;;;5030902;28;20032;-74
2022/02/27 12:12:53;;;;;;;10.30;4.47;;;11.70;66.80;;;;;;5031382;28;20025;-73
2022/02/27 12:15:20;;;;;;;30.38;5.53;;;11.70;66.00;;;;;;5031561;28;20021;-73
2022/02/27 12:18:15;;;;;;;17.45;4.60;;;11.70;66.00;;;;;;5030307;28;20037;-73
2022/02/27 12:20:43;;;;;;;12.57;3.75;;;11.70;65.80;;;;;;5029882;28;20075;-73
2022/02/27 12:23:11;;;;;;;8.57;3.50;;;11.70;66.10;;;;;;5027877;28;20087;-73
2022/02/27 12:25:43;;;;;;;8.52;3.33;;;11.70;66.00;;;;;;5044849;28;20509;-73
2022/02/27 12:28:09;;;;;;;9.07;3.50;;;11.70;66.10;;;;;;5047675;28;20040;-73
2022/02/27 12:30:36;;;;;;;7.85;3.28;;;11.70;66.30;;;;;;5030264;28;20029;-73
2022/02/27 12:33:06;;;;;;;17.92;3.15;;;11.70;66.10;;;;;;5030249;28;20067;-73
2022/02/27 12:35:37;;;;;;;13.40;3.40;;;11.70;66.10;;;;;;5048474;28;20028;-73
2022/02/27 12:38:10;;;;;;;9.40;3.30;;;11.70;66.00;;;;;;5031493;28;20025;-73
2022/02/27 12:40:36;;;;;;;9.45;3.17;;;11.80;66.30;;;;;;5030138;28;20037;-74